NorthWeedRWIS Atmospheric Data: 05/22/2020 Summary  Detailed Graphs  Station List

  Temperature     Wind Precipitation Visibility
Timestamp Air Wet
Bulb
Dew-
point
24-hr
Max
24-hr
Min
Relative
Humidity
Atmospheric
Pressure
Avg
Speed
Avg
Dir
Spot
Speed
Spot
Dir
Max
Speed
Max
Dir
  Rate Situation Start End 1 hr 3 hr 6 hr 12 hr 24 hr   Situation
Date Time °F °F °F °F °F % in Hg mph ° mph ° mph ° Y/N in/hr text Date Time Date Time in in in in in mi text
05/22/2020 12:03 AM 44.78 40.28 34.70 70.16 37.04 67.0 Not Reported 4.25 NW 2.68 NW 6.26 W No 0.000 No Precipitation 05/19/2020 03:05 PM 05/19/2020 03:13 PM 0.000 0.000 0.000 0.000 0.000 Not Reported Not Reported
05/22/2020 12:18 AM 44.24 40.28 35.24 70.16 37.04 70.0 Not Reported 2.01 N 2.91 N 3.13 N No 0.000 No Precipitation 05/19/2020 03:05 PM 05/19/2020 03:13 PM 0.000 0.000 0.000 0.000 0.000 Not Reported Not Reported
05/22/2020 12:33 AM 44.42 40.28 35.24 70.16 37.04 69.0 Not Reported 3.58 NW 3.80 N 5.59 N No 0.000 No Precipitation 05/19/2020 03:05 PM 05/19/2020 03:13 PM 0.000 0.000 0.000 0.000 0.000 Not Reported Not Reported
05/22/2020 12:48 AM 44.60 40.28 35.24 70.16 37.04 69.0 Not Reported 3.36 NW 2.91 W 5.14 NW No 0.000 No Precipitation 05/19/2020 03:05 PM 05/19/2020 03:13 PM 0.000 0.000 0.000 0.000 0.000 Not Reported Not Reported
05/22/2020 01:03 AM 44.60 40.46 35.24 70.16 37.04 69.0 Not Reported 3.13 NW 2.46 W 4.03 NW No 0.000 No Precipitation 05/19/2020 03:05 PM 05/19/2020 03:13 PM 0.000 0.000 0.000 0.000 0.000 Not Reported Not Reported
05/22/2020 01:18 AM 43.88 39.74 34.34 70.16 37.04 68.0 Not Reported 3.36 NW 2.24 NW 5.82 NW No 0.000 No Precipitation 05/19/2020 03:05 PM 05/19/2020 03:13 PM 0.000 0.000 0.000 0.000 0.000 Not Reported Not Reported
05/22/2020 01:33 AM 43.70 39.56 34.34 70.16 37.04 69.0 Not Reported 3.13 N 2.46 NE 5.14 W No 0.000 No Precipitation 05/19/2020 03:05 PM 05/19/2020 03:13 PM 0.000 0.000 0.000 0.000 0.000 Not Reported Not Reported
05/22/2020 01:48 AM 43.16 39.20 34.16 70.16 37.04 70.0 Not Reported 4.03 NW 3.36 NW 6.26 NW No 0.000 No Precipitation 05/19/2020 03:05 PM 05/19/2020 03:13 PM 0.000 0.000 0.000 0.000 0.000 Not Reported Not Reported
05/22/2020 02:03 AM 42.98 39.20 34.34 70.16 37.04 70.0 Not Reported 3.80 NW 2.24 NE 5.14 NW No 0.000 No Precipitation 05/19/2020 03:05 PM 05/19/2020 03:13 PM 0.000 0.000 0.000 0.000 0.000 Not Reported Not Reported
05/22/2020 02:18 AM 42.62 38.84 33.80 70.16 37.04 70.0 Not Reported 4.92 NW 6.04 W 6.49 W No 0.000 No Precipitation 05/19/2020 03:05 PM 05/19/2020 03:13 PM 0.000 0.000 0.000 0.000 0.000 Not Reported Not Reported
05/22/2020 02:33 AM 42.44 38.48 33.62 70.16 37.04 70.0 Not Reported 4.25 NW 4.03 NW 8.28 W No 0.000 No Precipitation 05/19/2020 03:05 PM 05/19/2020 03:13 PM 0.000 0.000 0.000 0.000 0.000 Not Reported Not Reported
05/22/2020 02:48 AM 42.26 38.48 33.44 70.16 37.04 70.0 Not Reported 3.58 NW 2.68 NW 6.49 NW No 0.000 No Precipitation 05/19/2020 03:05 PM 05/19/2020 03:13 PM 0.000 0.000 0.000 0.000 0.000 Not Reported Not Reported
05/22/2020 03:03 AM 42.08 38.30 33.44 70.16 37.04 71.0 Not Reported 4.25 NW 1.79 N 6.04 NW No 0.000 No Precipitation 05/19/2020 03:05 PM 05/19/2020 03:13 PM 0.000 0.000 0.000 0.000 0.000 Not Reported Not Reported
05/22/2020 03:18 AM 41.54 37.76 32.54 70.16 37.04 70.0 Not Reported 4.92 NW 7.16 NW 7.16 NW No 0.000 No Precipitation 05/19/2020 03:05 PM 05/19/2020 03:13 PM 0.000 0.000 0.000 0.000 0.000 Not Reported Not Reported
05/22/2020 03:33 AM 41.36 37.40 32.18 70.16 37.04 69.0 Not Reported 5.37 NW 3.58 NW 7.16 NW No 0.000 No Precipitation 05/19/2020 03:05 PM 05/19/2020 03:13 PM 0.000 0.000 0.000 0.000 0.000 Not Reported Not Reported
05/22/2020 03:48 AM 41.18 37.58 32.54 70.16 37.04 71.0 Not Reported 2.46 NW 1.12 NW 4.25 N No 0.000 No Precipitation 05/19/2020 03:05 PM 05/19/2020 03:13 PM 0.000 0.000 0.000 0.000 0.000 Not Reported Not Reported
05/22/2020 04:03 AM 40.82 37.58 33.08 70.16 37.04 73.0 Not Reported 2.91 NW 1.57 NW 5.14 N No 0.000 No Precipitation 05/19/2020 03:05 PM 05/19/2020 03:13 PM 0.000 0.000 0.000 0.000 0.000 Not Reported Not Reported
05/22/2020 04:18 AM 40.46 37.22 32.54 70.16 37.04 73.0 Not Reported 3.13 NW 4.03 NW 5.82 NW No 0.000 No Precipitation 05/19/2020 03:05 PM 05/19/2020 03:13 PM 0.000 0.000 0.000 0.000 0.000 Not Reported Not Reported
05/22/2020 04:33 AM 40.28 36.86 32.18 70.16 37.04 72.0 Not Reported 2.01 NW 5.14 NW 5.82 NW No 0.000 No Precipitation 05/19/2020 03:05 PM 05/19/2020 03:13 PM 0.000 0.000 0.000 0.000 0.000 Not Reported Not Reported
05/22/2020 04:48 AM 39.56 36.68 32.72 70.16 37.04 75.0 Not Reported 3.36 W 3.58 W 4.92 NW No 0.000 No Precipitation 05/19/2020 03:05 PM 05/19/2020 03:13 PM 0.000 0.000 0.000 0.000 0.000 Not Reported Not Reported
05/22/2020 05:03 AM 39.38 36.50 32.72 70.16 37.04 76.0 Not Reported 2.46 NW 2.24 N 6.93 NW No 0.000 No Precipitation 05/19/2020 03:05 PM 05/19/2020 03:13 PM 0.000 0.000 0.000 0.000 0.000 Not Reported Not Reported
05/22/2020 05:18 AM 38.84 36.32 32.72 70.16 37.04 78.0 Not Reported 3.58 NW 4.03 NW 4.92 W No 0.000 No Precipitation 05/19/2020 03:05 PM 05/19/2020 03:13 PM 0.000 0.000 0.000 0.000 0.000 Not Reported Not Reported
05/22/2020 05:33 AM 38.66 36.32 33.26 70.16 37.04 80.0 Not Reported 0.45 NW 1.34 NW 3.80 SW No 0.000 No Precipitation 05/19/2020 03:05 PM 05/19/2020 03:13 PM 0.000 0.000 0.000 0.000 0.000 Not Reported Not Reported
05/22/2020 05:48 AM 38.66 36.32 33.08 70.16 37.04 80.0 Not Reported 2.46 NW 3.80 N 4.92 NW No 0.000 No Precipitation 05/19/2020 03:05 PM 05/19/2020 03:13 PM 0.000 0.000 0.000 0.000 0.000 Not Reported Not Reported
05/22/2020 06:03 AM 38.48 35.96 32.54 70.16 37.22 79.0 Not Reported 1.79 NW 1.34 NW 4.92 N No 0.000 No Precipitation 05/19/2020 03:05 PM 05/19/2020 03:13 PM 0.000 0.000 0.000 0.000 0.000 Not Reported Not Reported
05/22/2020 06:18 AM 38.30 35.78 32.36 70.16 37.94 79.0 Not Reported 1.57 NW 2.24 N 3.58 N No 0.000 No Precipitation 05/19/2020 03:05 PM 05/19/2020 03:13 PM 0.000 0.000 0.000 0.000 0.000 Not Reported Not Reported
05/22/2020 06:33 AM 38.30 35.60 32.00 70.16 37.94 77.0 Not Reported 3.36 NW 2.68 NW 4.25 NW No 0.000 No Precipitation 05/19/2020 03:05 PM 05/19/2020 03:13 PM 0.000 0.000 0.000 0.000 0.000 Not Reported Not Reported
05/22/2020 06:48 AM 37.94 35.24 31.46 70.16 37.94 76.0 Not Reported 3.80 NW 2.68 W 5.82 N No 0.000 No Precipitation 05/19/2020 03:05 PM 05/19/2020 03:13 PM 0.000 0.000 0.000 0.000 0.000 Not Reported Not Reported
05/22/2020 07:03 AM 37.58 35.06 31.46 70.16 37.58 77.0 Not Reported 2.01 NW 2.01 SE 4.03 N No 0.000 No Precipitation 05/19/2020 03:05 PM 05/19/2020 03:13 PM 0.000 0.000 0.000 0.000 0.000 Not Reported Not Reported
05/22/2020 07:18 AM 38.30 35.60 31.82 70.16 37.58 76.0 Not Reported 2.68 N 2.46 N 5.14 NW No 0.000 No Precipitation 05/19/2020 03:05 PM 05/19/2020 03:13 PM 0.000 0.000 0.000 0.000 0.000 Not Reported Not Reported
05/22/2020 07:33 AM 39.20 36.14 32.00 70.16 37.58 74.0 Not Reported 2.01 N 2.01 NW 3.13 W No 0.000 No Precipitation 05/19/2020 03:05 PM 05/19/2020 03:13 PM 0.000 0.000 0.000 0.000 0.000 Not Reported Not Reported
05/22/2020 07:48 AM 38.66 35.42 30.92 70.16 37.58 72.0 Not Reported 3.58 NW 2.68 NW 6.71 NW No 0.000 No Precipitation 05/19/2020 03:05 PM 05/19/2020 03:13 PM 0.000 0.000 0.000 0.000 0.000 Not Reported Not Reported
05/22/2020 08:03 AM 39.92 36.50 32.00 70.16 37.58 72.0 Not Reported 3.58 NW 3.13 NW 5.14 NW No 0.000 No Precipitation 05/19/2020 03:05 PM 05/19/2020 03:13 PM 0.000 0.000 0.000 0.000 0.000 Not Reported Not Reported
05/22/2020 08:18 AM 41.18 37.40 32.00 70.16 37.58 69.0 Not Reported 3.80 NW 2.46 N 5.59 NW No 0.000 No Precipitation 05/19/2020 03:05 PM 05/19/2020 03:13 PM 0.000 0.000 0.000 0.000 0.000 Not Reported Not Reported
05/22/2020 08:33 AM 41.00 37.04 31.46 70.16 37.58 67.0 Not Reported 3.58 NW 7.16 W 7.16 NW No 0.000 No Precipitation 05/19/2020 03:05 PM 05/19/2020 03:13 PM 0.000 0.000 0.000 0.000 0.000 Not Reported Not Reported
05/22/2020 08:48 AM 41.72 37.58 31.46 70.16 37.58 66.0 Not Reported 3.58 NW 2.01 NE 6.26 NW No 0.000 No Precipitation 05/19/2020 03:05 PM 05/19/2020 03:13 PM 0.000 0.000 0.000 0.000 0.000 Not Reported Not Reported
05/22/2020 09:03 AM 41.72 37.40 31.82 70.16 37.58 67.0 Not Reported 2.01 NW 0.22 NW 7.16 NW No 0.000 No Precipitation 05/19/2020 03:05 PM 05/19/2020 03:13 PM 0.000 0.000 0.000 0.000 0.000 Not Reported Not Reported
05/22/2020 09:18 AM 45.68 40.10 33.08 70.16 37.58 61.0 Not Reported 2.91 NW 3.36 NW 4.92 NW No 0.000 No Precipitation 05/19/2020 03:05 PM 05/19/2020 03:13 PM 0.000 0.000 0.000 0.000 0.000 Not Reported Not Reported
05/22/2020 09:33 AM 46.76 39.38 29.12 70.16 37.58 49.0 Not Reported 2.24 N 3.13 NE 6.71 N No 0.000 No Precipitation 05/19/2020 03:05 PM 05/19/2020 03:13 PM 0.000 0.000 0.000 0.000 0.000 Not Reported Not Reported
05/22/2020 09:48 AM 48.74 41.54 32.72 70.16 37.58 53.0 Not Reported 1.79 NW 1.12 NW 6.93 NW No 0.000 No Precipitation 05/19/2020 03:05 PM 05/19/2020 03:13 PM 0.000 0.000 0.000 0.000 0.000 Not Reported Not Reported
05/22/2020 10:03 AM 48.56 41.18 31.46 70.16 37.58 50.0 Not Reported 1.79 N 3.58 W 7.16 NE No 0.000 No Precipitation 05/19/2020 03:05 PM 05/19/2020 03:13 PM 0.000 0.000 0.000 0.000 0.000 Not Reported Not Reported
05/22/2020 10:18 AM 49.46 41.54 31.46 70.16 37.58 49.0 Not Reported 2.91 N 4.92 E 6.71 N No 0.000 No Precipitation 05/19/2020 03:05 PM 05/19/2020 03:13 PM 0.000 0.000 0.000 0.000 0.000 Not Reported Not Reported
05/22/2020 10:33 AM 49.64 41.00 29.30 70.16 37.58 44.0 Not Reported 1.57 N 6.04 NE 8.50 N No 0.000 No Precipitation 05/19/2020 03:05 PM 05/19/2020 03:13 PM 0.000 0.000 0.000 0.000 0.000 Not Reported Not Reported
05/22/2020 10:48 AM 51.80 42.62 31.10 70.16 37.58 44.0 Not Reported 3.80 N 5.59 W 6.93 N No 0.000 No Precipitation 05/19/2020 03:05 PM 05/19/2020 03:13 PM 0.000 0.000 0.000 0.000 0.000 Not Reported Not Reported
05/22/2020 11:03 AM 48.56 41.18 31.64 70.16 37.58 51.0 Not Reported 2.01 NW 0.67 N 8.50 W No 0.000 No Precipitation 05/19/2020 03:05 PM 05/19/2020 03:13 PM 0.000 0.000 0.000 0.000 0.000 Not Reported Not Reported
05/22/2020 11:18 AM 49.46 41.18 30.02 70.16 37.58 46.0 Not Reported 4.25 NW 2.68 N 8.50 NW No 0.000 No Precipitation 05/19/2020 03:05 PM 05/19/2020 03:13 PM 0.000 0.000 0.000 0.000 0.000 Not Reported Not Reported
05/22/2020 11:33 AM 52.16 42.80 31.28 70.16 37.58 44.0 Not Reported 5.14 NW 4.70 N 7.61 NW No 0.000 No Precipitation 05/19/2020 03:05 PM 05/19/2020 03:13 PM 0.000 0.000 0.000 0.000 0.000 Not Reported Not Reported
05/22/2020 11:48 AM 52.34 42.44 29.66 70.16 37.58 41.0 Not Reported 4.03 NW 3.36 NW 7.38 NW No 0.000 No Precipitation 05/19/2020 03:05 PM 05/19/2020 03:13 PM 0.000 0.000 0.000 0.000 0.000 Not Reported Not Reported
05/22/2020 12:03 PM 51.62 41.72 28.40 70.16 37.58 40.0 Not Reported 2.46 N 3.58 NE 6.26 N No 0.000 No Precipitation 05/19/2020 03:05 PM 05/19/2020 03:13 PM 0.000 0.000 0.000 0.000 0.000 Not Reported Not Reported
05/22/2020 12:18 PM 56.48 43.70 26.96 70.16 37.58 31.0 Not Reported 1.34 N 0.67 S 5.37 N No 0.000 No Precipitation 05/19/2020 03:05 PM 05/19/2020 03:13 PM 0.000 0.000 0.000 0.000 0.000 Not Reported Not Reported
05/22/2020 12:33 PM 54.14 43.16 29.12 70.16 37.58 37.0 Not Reported 2.91 NW 2.91 NW 7.38 N No 0.000 No Precipitation 05/19/2020 03:05 PM 05/19/2020 03:13 PM 0.000 0.000 0.000 0.000 0.000 Not Reported Not Reported
05/22/2020 12:48 PM 55.22 44.24 30.56 70.16 37.58 38.0 Not Reported 1.57 NW 0.89 W 6.71 W No 0.000 No Precipitation 05/19/2020 03:05 PM 05/19/2020 03:13 PM 0.000 0.000 0.000 0.000 0.000 Not Reported Not Reported
05/22/2020 01:03 PM 53.96 43.16 29.30 70.16 37.58 38.0 Not Reported 1.79 NW 2.01 N 5.14 NW No 0.000 No Precipitation 05/19/2020 03:05 PM 05/19/2020 03:13 PM 0.000 0.000 0.000 0.000 0.000 Not Reported Not Reported
05/22/2020 01:18 PM 55.58 43.16 26.60 70.16 37.58 32.0 Not Reported 7.16 NW 7.83 W 8.28 NW No 0.000 No Precipitation 05/19/2020 03:05 PM 05/19/2020 03:13 PM 0.000 0.000 0.000 0.000 0.000 Not Reported Not Reported
05/22/2020 01:33 PM 57.56 43.88 25.70 70.16 37.58 28.0 Not Reported 3.13 N 6.26 NW 6.26 NW No 0.000 No Precipitation 05/19/2020 03:05 PM 05/19/2020 03:13 PM 0.000 0.000 0.000 0.000 0.000 Not Reported Not Reported
05/22/2020 01:48 PM 58.46 45.68 30.38 70.16 37.58 33.0 Not Reported 2.91 N 3.80 NE 10.29 W No 0.000 No Precipitation 05/19/2020 03:05 PM 05/19/2020 03:13 PM 0.000 0.000 0.000 0.000 0.000 Not Reported Not Reported
05/22/2020 02:03 PM 58.10 44.60 27.32 70.16 37.58 30.0 Not Reported 3.13 N 2.46 NW 7.38 W No 0.000 No Precipitation 05/19/2020 03:05 PM 05/19/2020 03:13 PM 0.000 0.000 0.000 0.000 0.000 Not Reported Not Reported
05/22/2020 02:18 PM 59.54 46.58 31.64 70.16 37.58 34.0 Not Reported 3.80 NW 5.14 N 7.38 NE No 0.000 No Precipitation 05/19/2020 03:05 PM 05/19/2020 03:13 PM 0.000 0.000 0.000 0.000 0.000 Not Reported Not Reported
05/22/2020 02:33 PM 56.84 44.24 28.22 69.26 37.58 33.0 Not Reported 6.26 NW 8.50 N 9.62 NW No 0.000 No Precipitation 05/19/2020 03:05 PM 05/19/2020 03:13 PM 0.000 0.000 0.000 0.000 0.000 Not Reported Not Reported
05/22/2020 02:48 PM 57.92 44.78 27.86 68.18 37.58 31.0 Not Reported 2.68 NW 2.01 N 6.04 NW No 0.000 No Precipitation 05/19/2020 03:05 PM 05/19/2020 03:13 PM 0.000 0.000 0.000 0.000 0.000 Not Reported Not Reported
05/22/2020 03:03 PM 57.02 43.88 26.42 68.18 37.58 30.0 Not Reported 5.37 NW 4.70 NW 10.74 NW No 0.000 No Precipitation 05/19/2020 03:05 PM 05/19/2020 03:13 PM 0.000 0.000 0.000 0.000 0.000 Not Reported Not Reported
05/22/2020 03:18 PM 57.38 44.24 26.78 68.18 37.58 30.0 Not Reported 4.70 W 4.92 W 7.83 NW No 0.000 No Precipitation 05/19/2020 03:05 PM 05/19/2020 03:13 PM 0.000 0.000 0.000 0.000 0.000 Not Reported Not Reported
05/22/2020 03:33 PM 56.66 43.16 24.98 68.00 37.58 29.0 Not Reported 4.47 W 3.80 W 8.05 W No 0.000 No Precipitation 05/19/2020 03:05 PM 05/19/2020 03:13 PM 0.000 0.000 0.000 0.000 0.000 Not Reported Not Reported
05/22/2020 03:48 PM 60.44 46.40 29.12 68.00 37.58 30.0 Not Reported 2.46 NE 4.03 NE 9.40 W No 0.000 No Precipitation 05/19/2020 03:05 PM 05/19/2020 03:13 PM 0.000 0.000 0.000 0.000 0.000 Not Reported Not Reported
05/22/2020 04:03 PM 59.54 44.60 24.44 68.00 37.58 25.0 Not Reported 2.68 NW 3.36 NW 8.05 NW No 0.000 No Precipitation 05/19/2020 03:05 PM 05/19/2020 03:13 PM 0.000 0.000 0.000 0.000 0.000 Not Reported Not Reported
05/22/2020 04:18 PM 60.08 44.60 23.54 68.00 37.58 24.0 Not Reported 7.16 NW 6.71 NW 10.07 NW No 0.000 No Precipitation 05/19/2020 03:05 PM 05/19/2020 03:13 PM 0.000 0.000 0.000 0.000 0.000 Not Reported Not Reported
05/22/2020 04:33 PM 57.74 44.06 26.24 67.64 37.58 29.0 Not Reported 0.89 NW 2.46 E 12.53 W No 0.000 No Precipitation 05/19/2020 03:05 PM 05/19/2020 03:13 PM 0.000 0.000 0.000 0.000 0.000 Not Reported Not Reported
05/22/2020 04:48 PM 60.26 45.32 26.06 67.64 37.58 26.0 Not Reported 4.03 NE 4.47 N 5.82 NW No 0.000 No Precipitation 05/19/2020 03:05 PM 05/19/2020 03:13 PM 0.000 0.000 0.000 0.000 0.000 Not Reported Not Reported
05/22/2020 05:03 PM 59.90 45.32 26.60 67.64 37.58 27.0 Not Reported 1.57 W 2.68 NE 6.93 W No 0.000 No Precipitation 05/19/2020 03:05 PM 05/19/2020 03:13 PM 0.000 0.000 0.000 0.000 0.000 Not Reported Not Reported
05/22/2020 05:18 PM 59.72 45.14 25.88 67.64 37.58 26.0 Not Reported 1.79 NW 1.34 NW 4.25 N No 0.000 No Precipitation 05/19/2020 03:05 PM 05/19/2020 03:13 PM 0.000 0.000 0.000 0.000 0.000 Not Reported Not Reported
05/22/2020 05:33 PM 60.08 44.96 24.98 67.64 37.58 25.0 Not Reported 1.79 NW 4.92 NW 4.92 NW No 0.000 No Precipitation 05/19/2020 03:05 PM 05/19/2020 03:13 PM 0.000 0.000 0.000 0.000 0.000 Not Reported Not Reported
05/22/2020 05:48 PM 60.08 45.14 28.04 67.64 37.58 29.0 Not Reported 4.03 N 3.58 N 4.47 N No 0.000 No Precipitation 05/19/2020 03:05 PM 05/19/2020 03:13 PM 0.000 0.000 0.000 0.000 0.000 Not Reported Not Reported
05/22/2020 06:03 PM 59.90 44.96 25.34 66.74 37.58 26.0 Not Reported 3.58 NW 4.70 W 7.61 N No 0.000 No Precipitation 05/19/2020 03:05 PM 05/19/2020 03:13 PM 0.000 0.000 0.000 0.000 0.000 Not Reported Not Reported
05/22/2020 06:18 PM 59.36 44.78 25.52 66.38 37.58 27.0 Not Reported 1.57 NW 1.79 N 4.70 NW No 0.000 No Precipitation 05/19/2020 03:05 PM 05/19/2020 03:13 PM 0.000 0.000 0.000 0.000 0.000 Not Reported Not Reported
05/22/2020 06:33 PM 59.00 44.96 26.78 65.66 37.58 28.0 Not Reported 1.57 N 0.89 E 5.14 N No 0.000 No Precipitation 05/19/2020 03:05 PM 05/19/2020 03:13 PM 0.000 0.000 0.000 0.000 0.000 Not Reported Not Reported
05/22/2020 06:48 PM 58.10 44.60 26.96 62.60 37.58 29.0 Not Reported 3.13 NW 2.68 NW 5.37 N No 0.000 No Precipitation 05/19/2020 03:05 PM 05/19/2020 03:13 PM 0.000 0.000 0.000 0.000 0.000 Not Reported Not Reported
05/22/2020 07:03 PM 57.38 44.60 28.04 61.52 37.58 32.0 Not Reported 2.68 NW 1.57 NE 4.25 NW No 0.000 No Precipitation 05/19/2020 03:05 PM 05/19/2020 03:13 PM 0.000 0.000 0.000 0.000 0.000 Not Reported Not Reported
05/22/2020 07:18 PM 56.12 43.88 28.22 61.52 37.58 33.0 Not Reported 1.57 NW 0.45 NW 2.91 W No 0.000 No Precipitation 05/19/2020 03:05 PM 05/19/2020 03:13 PM 0.000 0.000 0.000 0.000 0.000 Not Reported Not Reported
05/22/2020 07:33 PM 54.32 43.16 28.76 61.52 37.58 37.0 Not Reported 0.89 N 2.01 N 2.91 NE No 0.000 No Precipitation 05/19/2020 03:05 PM 05/19/2020 03:13 PM 0.000 0.000 0.000 0.000 0.000 Not Reported Not Reported
05/22/2020 07:48 PM 52.88 42.62 29.48 61.52 37.58 40.0 Not Reported 1.34 N 0.89 NE 4.92 N No 0.000 No Precipitation 05/19/2020 03:05 PM 05/19/2020 03:13 PM 0.000 0.000 0.000 0.000 0.000 Not Reported Not Reported
05/22/2020 08:03 PM 51.98 42.08 29.30 61.52 37.58 41.0 Not Reported 1.79 N 1.79 N 4.25 N No 0.000 No Precipitation 05/19/2020 03:05 PM 05/19/2020 03:13 PM 0.000 0.000 0.000 0.000 0.000 Not Reported Not Reported
05/22/2020 08:18 PM 51.44 41.54 28.22 61.52 37.58 40.0 Not Reported 1.79 N 1.34 NE 2.68 N No 0.000 No Precipitation 05/19/2020 03:05 PM 05/19/2020 03:13 PM 0.000 0.000 0.000 0.000 0.000 Not Reported Not Reported
05/22/2020 08:33 PM 50.54 41.00 28.22 61.52 37.58 41.0 Not Reported 1.12 W 0.67 NE 1.57 NW No 0.000 No Precipitation 05/19/2020 03:05 PM 05/19/2020 03:13 PM 0.000 0.000 0.000 0.000 0.000 Not Reported Not Reported
05/22/2020 08:48 PM 50.18 40.46 27.32 61.52 37.58 40.0 Not Reported 1.57 W 2.46 NW 2.46 NW No 0.000 No Precipitation 05/19/2020 03:05 PM 05/19/2020 03:13 PM 0.000 0.000 0.000 0.000 0.000 Not Reported Not Reported
05/22/2020 09:03 PM 49.28 40.28 28.04 61.52 37.58 43.0 Not Reported 3.58 NW 2.01 NW 4.47 NW No 0.000 No Precipitation 05/19/2020 03:05 PM 05/19/2020 03:13 PM 0.000 0.000 0.000 0.000 0.000 Not Reported Not Reported
05/22/2020 09:18 PM 47.66 39.74 29.12 61.52 37.58 48.0 Not Reported 0.89 NW 2.24 NW 4.92 W No 0.000 No Precipitation 05/19/2020 03:05 PM 05/19/2020 03:13 PM 0.000 0.000 0.000 0.000 0.000 Not Reported Not Reported
05/22/2020 09:33 PM 46.76 39.56 29.66 61.52 37.58 50.0 Not Reported 0.00 NW 0.00 SE 3.13 W No 0.000 No Precipitation 05/19/2020 03:05 PM 05/19/2020 03:13 PM 0.000 0.000 0.000 0.000 0.000 Not Reported Not Reported
05/22/2020 09:48 PM 46.22 39.20 29.48 61.52 37.58 51.0 Not Reported 0.67 SW 0.00 SW 1.34 SE No 0.000 No Precipitation 05/19/2020 03:05 PM 05/19/2020 03:13 PM 0.000 0.000 0.000 0.000 0.000 Not Reported Not Reported
05/22/2020 10:03 PM 45.86 39.02 29.66 61.52 37.58 52.0 Not Reported 0.22 S 0.67 SE 1.34 SE No 0.000 No Precipitation 05/19/2020 03:05 PM 05/19/2020 03:13 PM 0.000 0.000 0.000 0.000 0.000 Not Reported Not Reported
05/22/2020 10:18 PM 45.14 38.66 29.66 61.52 37.58 54.0 Not Reported 0.22 SW 0.89 SW 1.34 SW No 0.000 No Precipitation 05/19/2020 03:05 PM 05/19/2020 03:13 PM 0.000 0.000 0.000 0.000 0.000 Not Reported Not Reported
05/22/2020 10:33 PM 44.42 38.30 29.66 61.52 37.58 55.0 Not Reported 0.45 SE 0.67 SE 1.12 SE No 0.000 No Precipitation 05/19/2020 03:05 PM 05/19/2020 03:13 PM 0.000 0.000 0.000 0.000 0.000 Not Reported Not Reported
05/22/2020 10:48 PM 42.98 37.58 30.38 61.52 37.58 60.0 Not Reported 3.13 SE 2.91 SE 3.80 SE No 0.000 No Precipitation 05/19/2020 03:05 PM 05/19/2020 03:13 PM 0.000 0.000 0.000 0.000 0.000 Not Reported Not Reported
05/22/2020 11:03 PM 41.72 36.86 30.38 61.52 37.58 63.0 Not Reported 2.46 SE 3.13 SE 3.58 SE No 0.000 No Precipitation 05/19/2020 03:05 PM 05/19/2020 03:13 PM 0.000 0.000 0.000 0.000 0.000 Not Reported Not Reported
05/22/2020 11:18 PM 40.64 36.32 30.02 61.52 37.58 64.0 Not Reported 2.46 SE 2.68 SE 2.68 SE No 0.000 No Precipitation 05/19/2020 03:05 PM 05/19/2020 03:13 PM 0.000 0.000 0.000 0.000 0.000 Not Reported Not Reported
05/22/2020 11:33 PM 39.92 35.96 30.20 61.52 37.58 67.0 Not Reported 3.36 SE 3.13 SE 4.25 SE No 0.000 No Precipitation 05/19/2020 03:05 PM 05/19/2020 03:13 PM 0.000 0.000 0.000 0.000 0.000 Not Reported Not Reported
05/22/2020 11:48 PM 39.38 35.60 30.38 61.52 37.58 69.0 Not Reported 3.13 SE 3.13 SE 4.25 SE No 0.000 No Precipitation 05/19/2020 03:05 PM 05/19/2020 03:13 PM 0.000 0.000 0.000 0.000 0.000 Not Reported Not Reported